Main page
METAR-TAF:

METAR-TAF

Airports :

Hannover Airport

Hanover, Germany

latitude: 52-28N, longitude: 009-41E, elevation: 56 m

Current weather observation

The report was made 23 minutes ago, at 10:50 UTC
Wind 9 kt from the West, varying between Southwest and West/Northwest
Temperature 8°C
Humidity 57%
Pressure 1021 hPa
Visibility 10 km or more
Scattered clouds at a height of 3500 ft

METAR: EDDV 011050Z 26009KT 220V290 9999 SCT035 08/00 Q1021 NOSIG

Time: 13:13 (11:13 UTC)

Forecast

The report was made 6 hours and 13 minutes ago, at 05:00 UTC
Forecast valid from 01 at 06 UTC to 02 at 06 UTC
Wind 3 kt from the Southwest
Visibility 10 km or more
no clouds below 1500 m and no cumulonimbus
Becoming
from 01 at 06 UTC to 01 at 08 UTC
Wind 8 kt from the West

TAF: EDDV 010500Z 0106/0206 23003KT CAVOK BECMG 0106/0108 26008KT

Weather observations and forecasts of more than 4000 airports (METAR and TAF reports).

The available stations are represented by yellow and red dots on the map.

Hover mouse over dot to see the name of the station.

Then click to see weather observations and forecasts.

To change the map : click on the green buttons with a black cross to zoom in, on the green button with a dash to zoom out, or on the green arrows for adjacent maps.


METAR-TAF: